sensor_id;sensor_type;location;lat;lon;timestamp;temperature;humidity
78479;SHT31;67769;51.972;5.668;2023-04-03T00:01:59;7.3;52.7
78479;SHT31;67769;51.972;5.668;2023-04-03T00:04:28;7.2;52.8
78479;SHT31;67769;51.972;5.668;2023-04-03T00:06:59;7.2;52.8
78479;SHT31;67769;51.972;5.668;2023-04-03T00:09:28;7.2;52.8
78479;SHT31;67769;51.972;5.668;2023-04-03T00:11:58;7.1;52.9
78479;SHT31;67769;51.972;5.668;2023-04-03T00:14:30;7.1;53.2
78479;SHT31;67769;51.972;5.668;2023-04-03T00:16:59;7.1;52.9
78479;SHT31;67769;51.972;5.668;2023-04-03T00:19:29;7.1;53.0
78479;SHT31;67769;51.972;5.668;2023-04-03T00:21:59;7.0;52.9
78479;SHT31;67769;51.972;5.668;2023-04-03T00:24:29;7.0;53.1
78479;SHT31;67769;51.972;5.668;2023-04-03T00:26:58;7.0;53.2
78479;SHT31;67769;51.972;5.668;2023-04-03T00:29:28;6.9;53.3
78479;SHT31;67769;51.972;5.668;2023-04-03T00:31:57;6.9;53.3
78479;SHT31;67769;51.972;5.668;2023-04-03T00:34:29;6.9;53.3
78479;SHT31;67769;51.972;5.668;2023-04-03T00:36:58;6.8;53.5
78479;SHT31;67769;51.972;5.668;2023-04-03T00:39:28;6.8;53.5
78479;SHT31;67769;51.972;5.668;2023-04-03T00:41:58;6.8;53.3
78479;SHT31;67769;51.972;5.668;2023-04-03T00:45:25;6.8;53.5
78479;SHT31;67769;51.972;5.668;2023-04-03T00:47:56;6.7;53.6
78479;SHT31;67769;51.972;5.668;2023-04-03T00:50:27;6.7;53.7
78479;SHT31;67769;51.972;5.668;2023-04-03T00:52:58;6.7;53.8
78479;SHT31;67769;51.972;5.668;2023-04-03T00:55:31;6.7;53.7
78479;SHT31;67769;51.972;5.668;2023-04-03T00:58:03;6.7;54.0
78479;SHT31;67769;51.972;5.668;2023-04-03T01:00:36;6.7;53.8
78479;SHT31;67769;51.972;5.668;2023-04-03T01:03:07;6.7;53.8
78479;SHT31;67769;51.972;5.668;2023-04-03T01:05:37;6.7;54.0
78479;SHT31;67769;51.972;5.668;2023-04-03T01:08:07;6.7;53.8
78479;SHT31;67769;51.972;5.668;2023-04-03T01:10:37;6.7;53.8
78479;SHT31;67769;51.972;5.668;2023-04-03T01:13:20;6.7;53.9
78479;SHT31;67769;51.972;5.668;2023-04-03T01:15:53;6.7;53.8
78479;SHT31;67769;51.972;5.668;2023-04-03T01:18:24;6.6;53.8
78479;SHT31;67769;51.972;5.668;2023-04-03T01:21:56;6.6;53.9
78479;SHT31;67769;51.972;5.668;2023-04-03T01:24:32;6.6;53.9
78479;SHT31;67769;51.972;5.668;2023-04-03T01:27:04;6.6;54.2
78479;SHT31;67769;51.972;5.668;2023-04-03T01:29:35;6.5;54.2
78479;SHT31;67769;51.972;5.668;2023-04-03T01:32:05;6.5;54.4
78479;SHT31;67769;51.972;5.668;2023-04-03T01:34:35;6.5;54.6
78479;SHT31;67769;51.972;5.668;2023-04-03T01:37:05;6.5;54.5
78479;SHT31;67769;51.972;5.668;2023-04-03T01:39:34;6.4;54.9
78479;SHT31;67769;51.972;5.668;2023-04-03T01:42:04;6.4;54.9
78479;SHT31;67769;51.972;5.668;2023-04-03T01:44:34;6.4;54.9
78479;SHT31;67769;51.972;5.668;2023-04-03T01:47:05;6.4;55.1
78479;SHT31;67769;51.972;5.668;2023-04-03T01:49:36;6.4;55.1
78479;SHT31;67769;51.972;5.668;2023-04-03T01:52:05;6.4;55.0
78479;SHT31;67769;51.972;5.668;2023-04-03T01:54:35;6.4;55.1
78479;SHT31;67769;51.972;5.668;2023-04-03T01:57:05;6.4;55.1
78479;SHT31;67769;51.972;5.668;2023-04-03T01:59:34;6.3;55.3
78479;SHT31;67769;51.972;5.668;2023-04-03T02:02:04;6.3;55.5
78479;SHT31;67769;51.972;5.668;2023-04-03T02:04:34;6.3;55.6
78479;SHT31;67769;51.972;5.668;2023-04-03T02:07:05;6.3;55.8
78479;SHT31;67769;51.972;5.668;2023-04-03T02:09:35;6.3;56.0
78479;SHT31;67769;51.972;5.668;2023-04-03T02:12:05;6.3;56.3
78479;SHT31;67769;51.972;5.668;2023-04-03T02:14:37;6.3;56.4
78479;SHT31;67769;51.972;5.668;2023-04-03T02:17:07;6.4;56.3
78479;SHT31;67769;51.972;5.668;2023-04-03T02:19:38;6.6;56.1
78479;SHT31;67769;51.972;5.668;2023-04-03T02:22:08;6.7;55.7
78479;SHT31;67769;51.972;5.668;2023-04-03T02:24:40;6.8;55.1
78479;SHT31;67769;51.972;5.668;2023-04-03T02:27:10;6.9;54.5
78479;SHT31;67769;51.972;5.668;2023-04-03T02:29:39;6.8;54.5
78479;SHT31;67769;51.972;5.668;2023-04-03T02:32:09;6.8;54.8
78479;SHT31;67769;51.972;5.668;2023-04-03T02:34:38;6.9;54.7
78479;SHT31;67769;51.972;5.668;2023-04-03T02:37:08;6.8;54.8
78479;SHT31;67769;51.972;5.668;2023-04-03T02:39:38;6.8;54.6
78479;SHT31;67769;51.972;5.668;2023-04-03T02:42:07;6.8;54.7
78479;SHT31;67769;51.972;5.668;2023-04-03T02:44:38;6.8;54.9
78479;SHT31;67769;51.972;5.668;2023-04-03T02:47:08;6.7;55.0
78479;SHT31;67769;51.972;5.668;2023-04-03T02:49:39;6.7;55.0
78479;SHT31;67769;51.972;5.668;2023-04-03T02:52:11;6.6;55.2
78479;SHT31;67769;51.972;5.668;2023-04-03T02:54:42;6.6;55.9
78479;SHT31;67769;51.972;5.668;2023-04-03T02:57:12;6.7;55.9
78479;SHT31;67769;51.972;5.668;2023-04-03T02:59:43;6.7;55.2
78479;SHT31;67769;51.972;5.668;2023-04-03T03:02:12;6.7;55.1
78479;SHT31;67769;51.972;5.668;2023-04-03T03:04:42;6.7;55.2
78479;SHT31;67769;51.972;5.668;2023-04-03T03:07:12;6.6;55.3
78479;SHT31;67769;51.972;5.668;2023-04-03T03:09:42;6.6;55.5
78479;SHT31;67769;51.972;5.668;2023-04-03T03:12:12;6.5;55.5
78479;SHT31;67769;51.972;5.668;2023-04-03T03:14:42;6.4;55.7
78479;SHT31;67769;51.972;5.668;2023-04-03T03:17:11;6.4;56.3
78479;SHT31;67769;51.972;5.668;2023-04-03T03:19:41;6.3;56.2
78479;SHT31;67769;51.972;5.668;2023-04-03T03:22:10;6.3;56.5
78479;SHT31;67769;51.972;5.668;2023-04-03T03:24:40;6.3;56.7
78479;SHT31;67769;51.972;5.668;2023-04-03T03:27:09;6.2;56.8
78479;SHT31;67769;51.972;5.668;2023-04-03T03:29:39;6.2;56.7
78479;SHT31;67769;51.972;5.668;2023-04-03T03:32:09;6.1;57.1
78479;SHT31;67769;51.972;5.668;2023-04-03T03:34:38;6.1;57.3
78479;SHT31;67769;51.972;5.668;2023-04-03T03:37:08;6.0;57.5
78479;SHT31;67769;51.972;5.668;2023-04-03T03:39:37;6.0;57.6
78479;SHT31;67769;51.972;5.668;2023-04-03T03:42:07;6.0;57.8
78479;SHT31;67769;51.972;5.668;2023-04-03T03:44:37;5.9;58.0
78479;SHT31;67769;51.972;5.668;2023-04-03T03:47:07;5.9;58.1
78479;SHT31;67769;51.972;5.668;2023-04-03T03:49:38;5.9;58.2
78479;SHT31;67769;51.972;5.668;2023-04-03T03:52:08;5.9;58.5
78479;SHT31;67769;51.972;5.668;2023-04-03T03:54:38;5.8;58.6
78479;SHT31;67769;51.972;5.668;2023-04-03T03:57:10;5.8;58.6
78479;SHT31;67769;51.972;5.668;2023-04-03T03:59:40;5.8;58.5
78479;SHT31;67769;51.972;5.668;2023-04-03T04:02:11;5.8;58.7
78479;SHT31;67769;51.972;5.668;2023-04-03T04:04:40;5.7;58.8
78479;SHT31;67769;51.972;5.668;2023-04-03T04:07:10;5.7;58.9
78479;SHT31;67769;51.972;5.668;2023-04-03T04:09:40;5.7;58.8
78479;SHT31;67769;51.972;5.668;2023-04-03T04:12:09;5.7;58.9
78479;SHT31;67769;51.972;5.668;2023-04-03T04:14:39;5.7;59.1
78479;SHT31;67769;51.972;5.668;2023-04-03T04:17:08;5.7;58.9
78479;SHT31;67769;51.972;5.668;2023-04-03T04:19:40;5.6;59.1
78479;SHT31;67769;51.972;5.668;2023-04-03T04:22:09;5.6;59.2
78479;SHT31;67769;51.972;5.668;2023-04-03T04:24:39;5.6;59.3
78479;SHT31;67769;51.972;5.668;2023-04-03T04:27:10;5.6;59.2
78479;SHT31;67769;51.972;5.668;2023-04-03T04:29:40;5.5;59.4
78479;SHT31;67769;51.972;5.668;2023-04-03T04:32:10;5.5;59.4
78479;SHT31;67769;51.972;5.668;2023-04-03T04:34:39;5.5;59.5
78479;SHT31;67769;51.972;5.668;2023-04-03T04:37:09;5.4;59.6
78479;SHT31;67769;51.972;5.668;2023-04-03T04:39:38;5.4;59.7
78479;SHT31;67769;51.972;5.668;2023-04-03T04:42:08;5.4;59.9
78479;SHT31;67769;51.972;5.668;2023-04-03T04:44:40;5.4;59.8
78479;SHT31;67769;51.972;5.668;2023-04-03T04:47:10;5.3;59.9
78479;SHT31;67769;51.972;5.668;2023-04-03T04:49:40;5.3;60.1
78479;SHT31;67769;51.972;5.668;2023-04-03T04:52:09;5.3;60.1
78479;SHT31;67769;51.972;5.668;2023-04-03T04:54:39;5.3;60.1
78479;SHT31;67769;51.972;5.668;2023-04-03T04:57:08;5.2;60.5
78479;SHT31;67769;51.972;5.668;2023-04-03T04:59:38;5.2;60.5
78479;SHT31;67769;51.972;5.668;2023-04-03T05:02:08;5.2;60.5
78479;SHT31;67769;51.972;5.668;2023-04-03T05:04:37;5.2;60.6
78479;SHT31;67769;51.972;5.668;2023-04-03T05:07:07;5.1;60.6
78479;SHT31;67769;51.972;5.668;2023-04-03T05:09:37;5.1;60.6
78479;SHT31;67769;51.972;5.668;2023-04-03T05:12:09;5.1;60.8
78479;SHT31;67769;51.972;5.668;2023-04-03T05:14:39;5.1;60.8
78479;SHT31;67769;51.972;5.668;2023-04-03T05:17:08;5.1;60.8
78479;SHT31;67769;51.972;5.668;2023-04-03T05:19:38;5.0;61.0
78479;SHT31;67769;51.972;5.668;2023-04-03T05:22:08;5.0;61.0
78479;SHT31;67769;51.972;5.668;2023-04-03T05:24:37;5.0;61.1
78479;SHT31;67769;51.972;5.668;2023-04-03T05:27:07;5.0;60.9
78479;SHT31;67769;51.972;5.668;2023-04-03T05:29:36;4.9;61.2
78479;SHT31;67769;51.972;5.668;2023-04-03T05:32:06;4.9;61.3
78479;SHT31;67769;51.972;5.668;2023-04-03T05:34:36;4.9;61.3
78479;SHT31;67769;51.972;5.668;2023-04-03T05:37:05;4.9;61.4
78479;SHT31;67769;51.972;5.668;2023-04-03T05:39:35;4.9;61.5
78479;SHT31;67769;51.972;5.668;2023-04-03T05:42:05;4.9;61.5
78479;SHT31;67769;51.972;5.668;2023-04-03T05:44:35;4.9;61.5
78479;SHT31;67769;51.972;5.668;2023-04-03T05:47:04;4.8;61.6
78479;SHT31;67769;51.972;5.668;2023-04-03T05:49:34;4.9;63.7
78479;SHT31;67769;51.972;5.668;2023-04-03T05:52:17;4.9;62.7
78479;SHT31;67769;51.972;5.668;2023-04-03T05:54:49;5.0;62.1
78479;SHT31;67769;51.972;5.668;2023-04-03T05:57:19;5.2;61.8
78479;SHT31;67769;51.972;5.668;2023-04-03T05:59:49;5.4;61.1
78479;SHT31;67769;51.972;5.668;2023-04-03T06:02:20;5.7;60.7
78479;SHT31;67769;51.972;5.668;2023-04-03T06:04:52;6.0;59.5
78479;SHT31;67769;51.972;5.668;2023-04-03T06:07:24;6.5;58.2
78479;SHT31;67769;51.972;5.668;2023-04-03T06:09:56;7.0;56.5
78479;SHT31;67769;51.972;5.668;2023-04-03T06:12:27;7.6;54.1
78479;SHT31;67769;51.972;5.668;2023-04-03T06:14:57;8.0;53.2
78479;SHT31;67769;51.972;5.668;2023-04-03T06:17:28;8.5;51.7
78479;SHT31;67769;51.972;5.668;2023-04-03T06:19:58;8.9;50.5
78479;SHT31;67769;51.972;5.668;2023-04-03T06:22:28;9.3;49.2
78479;SHT31;67769;51.972;5.668;2023-04-03T06:24:58;9.7;48.4
78479;SHT31;67769;51.972;5.668;2023-04-03T06:27:28;10.1;47.2
78479;SHT31;67769;51.972;5.668;2023-04-03T06:29:57;10.5;45.5
78479;SHT31;67769;51.972;5.668;2023-04-03T06:32:27;10.8;45.1
78479;SHT31;67769;51.972;5.668;2023-04-03T06:34:57;11.0;44.1
78479;SHT31;67769;51.972;5.668;2023-04-03T06:37:28;11.3;43.6
78479;SHT31;67769;51.972;5.668;2023-04-03T06:39:58;11.5;42.8
78479;SHT31;67769;51.972;5.668;2023-04-03T06:42:27;11.7;42.0
78479;SHT31;67769;51.972;5.668;2023-04-03T06:44:57;11.8;41.9
78479;SHT31;67769;51.972;5.668;2023-04-03T06:47:27;12.0;41.6
78479;SHT31;67769;51.972;5.668;2023-04-03T06:49:57;12.2;41.2
78479;SHT31;67769;51.972;5.668;2023-04-03T06:52:27;12.4;40.8
78479;SHT31;67769;51.972;5.668;2023-04-03T06:54:57;12.6;40.2
78479;SHT31;67769;51.972;5.668;2023-04-03T06:57:27;12.9;39.7
78479;SHT31;67769;51.972;5.668;2023-04-03T06:59:57;13.1;38.9
78479;SHT31;67769;51.972;5.668;2023-04-03T07:02:27;13.3;38.5
78479;SHT31;67769;51.972;5.668;2023-04-03T07:04:56;13.5;38.3
78479;SHT31;67769;51.972;5.668;2023-04-03T07:07:26;13.7;37.9
78479;SHT31;67769;51.972;5.668;2023-04-03T07:09:56;13.9;37.6
78479;SHT31;67769;51.972;5.668;2023-04-03T07:12:26;14.1;36.9
78479;SHT31;67769;51.972;5.668;2023-04-03T07:14:55;14.3;36.5
78479;SHT31;67769;51.972;5.668;2023-04-03T07:17:25;14.5;35.7
78479;SHT31;67769;51.972;5.668;2023-04-03T07:19:55;14.7;35.1
78479;SHT31;67769;51.972;5.668;2023-04-03T07:22:25;14.9;35.0
78479;SHT31;67769;51.972;5.668;2023-04-03T07:24:55;15.1;34.6
78479;SHT31;67769;51.972;5.668;2023-04-03T07:27:26;15.3;34.6
78479;SHT31;67769;51.972;5.668;2023-04-03T07:29:56;15.5;33.7
78479;SHT31;67769;51.972;5.668;2023-04-03T07:32:26;15.7;33.1
78479;SHT31;67769;51.972;5.668;2023-04-03T07:34:55;15.8;33.3
78479;SHT31;67769;51.972;5.668;2023-04-03T07:37:25;16.0;32.7
78479;SHT31;67769;51.972;5.668;2023-04-03T07:39:55;16.1;32.6
78479;SHT31;67769;51.972;5.668;2023-04-03T07:42:26;16.2;31.7
78479;SHT31;67769;51.972;5.668;2023-04-03T07:44:56;16.3;32.0
78479;SHT31;67769;51.972;5.668;2023-04-03T07:47:26;16.4;31.1
78479;SHT31;67769;51.972;5.668;2023-04-03T07:49:55;16.5;31.5
78479;SHT31;67769;51.972;5.668;2023-04-03T07:52:26;16.5;30.8
78479;SHT31;67769;51.972;5.668;2023-04-03T07:54:55;16.5;30.6
78479;SHT31;67769;51.972;5.668;2023-04-03T07:57:25;16.6;30.8
78479;SHT31;67769;51.972;5.668;2023-04-03T07:59:55;16.6;30.1
78479;SHT31;67769;51.972;5.668;2023-04-03T08:02:24;16.7;28.8
78479;SHT31;67769;51.972;5.668;2023-04-03T08:04:54;16.8;28.7
78479;SHT31;67769;51.972;5.668;2023-04-03T08:07:26;16.8;27.9
78479;SHT31;67769;51.972;5.668;2023-04-03T08:09:56;16.8;27.9
78479;SHT31;67769;51.972;5.668;2023-04-03T08:12:26;16.8;27.6
78479;SHT31;67769;51.972;5.668;2023-04-03T08:14:57;16.8;28.0
78479;SHT31;67769;51.972;5.668;2023-04-03T08:17:28;16.8;27.9
78479;SHT31;67769;51.972;5.668;2023-04-03T08:20:00;16.8;27.5
78479;SHT31;67769;51.972;5.668;2023-04-03T08:22:29;16.9;28.0
78479;SHT31;67769;51.972;5.668;2023-04-03T08:24:59;16.9;28.1
78479;SHT31;67769;51.972;5.668;2023-04-03T08:27:29;17.0;26.8
78479;SHT31;67769;51.972;5.668;2023-04-03T08:29:58;17.1;25.4
78479;SHT31;67769;51.972;5.668;2023-04-03T08:32:28;17.1;25.1
78479;SHT31;67769;51.972;5.668;2023-04-03T08:34:58;17.1;25.0
78479;SHT31;67769;51.972;5.668;2023-04-03T08:37:28;17.2;23.4
78479;SHT31;67769;51.972;5.668;2023-04-03T08:39:57;17.2;23.0
78479;SHT31;67769;51.972;5.668;2023-04-03T08:42:40;17.1;22.6
78479;SHT31;67769;51.972;5.668;2023-04-03T08:45:15;17.1;22.2
78479;SHT31;67769;51.972;5.668;2023-04-03T08:47:55;17.0;20.0
78479;SHT31;67769;51.972;5.668;2023-04-03T08:50:33;16.9;19.4
78479;SHT31;67769;51.972;5.668;2023-04-03T08:53:06;16.8;20.8
78479;SHT31;67769;51.972;5.668;2023-04-03T08:55:44;16.7;20.0
78479;SHT31;67769;51.972;5.668;2023-04-03T08:58:16;16.7;19.6
78479;SHT31;67769;51.972;5.668;2023-04-03T09:00:50;16.6;19.9
78479;SHT31;67769;51.972;5.668;2023-04-03T09:03:21;16.6;19.0
78479;SHT31;67769;51.972;5.668;2023-04-03T09:05:57;16.5;18.7
78479;SHT31;67769;51.972;5.668;2023-04-03T09:08:31;16.4;19.4
78479;SHT31;67769;51.972;5.668;2023-04-03T09:11:12;16.3;19.3
78479;SHT31;67769;51.972;5.668;2023-04-03T09:13:50;16.2;18.8
78479;SHT31;67769;51.972;5.668;2023-04-03T09:16:29;16.1;19.7
78479;SHT31;67769;51.972;5.668;2023-04-03T09:19:18;16.1;20.6
78479;SHT31;67769;51.972;5.668;2023-04-03T09:21:49;16.1;18.6
78479;SHT31;67769;51.972;5.668;2023-04-03T09:24:22;16.1;17.0
78479;SHT31;67769;51.972;5.668;2023-04-03T09:26:57;16.0;16.6
78479;SHT31;67769;51.972;5.668;2023-04-03T09:29:30;16.0;16.4
78479;SHT31;67769;51.972;5.668;2023-04-03T09:32:01;15.9;16.9
78479;SHT31;67769;51.972;5.668;2023-04-03T09:34:35;15.8;16.9
78479;SHT31;67769;51.972;5.668;2023-04-03T09:37:05;15.7;17.0
78479;SHT31;67769;51.972;5.668;2023-04-03T09:39:50;15.6;17.4
78479;SHT31;67769;51.972;5.668;2023-04-03T09:42:22;15.5;17.9
78479;SHT31;67769;51.972;5.668;2023-04-03T09:44:56;15.4;18.3
78479;SHT31;67769;51.972;5.668;2023-04-03T09:47:28;15.3;18.0
78479;SHT31;67769;51.972;5.668;2023-04-03T09:50:20;15.2;17.6
78479;SHT31;67769;51.972;5.668;2023-04-03T09:52:51;15.1;18.2
78479;SHT31;67769;51.972;5.668;2023-04-03T09:55:23;15.0;18.0
78479;SHT31;67769;51.972;5.668;2023-04-03T09:57:58;15.0;18.2
78479;SHT31;67769;51.972;5.668;2023-04-03T10:00:31;14.9;17.7
78479;SHT31;67769;51.972;5.668;2023-04-03T10:03:03;14.8;18.1
78479;SHT31;67769;51.972;5.668;2023-04-03T10:05:37;14.7;18.4
78479;SHT31;67769;51.972;5.668;2023-04-03T10:08:24;14.6;18.5
78479;SHT31;67769;51.972;5.668;2023-04-03T10:11:09;14.5;17.8
78479;SHT31;67769;51.972;5.668;2023-04-03T10:13:52;14.3;19.1
78479;SHT31;67769;51.972;5.668;2023-04-03T10:16:26;14.3;20.1
78479;SHT31;67769;51.972;5.668;2023-04-03T10:19:21;14.2;19.8
78479;SHT31;67769;51.972;5.668;2023-04-03T10:21:57;14.2;20.0
78479;SHT31;67769;51.972;5.668;2023-04-03T10:24:40;14.1;20.0
78479;SHT31;67769;51.972;5.668;2023-04-03T10:27:21;14.1;20.3
78479;SHT31;67769;51.972;5.668;2023-04-03T10:30:02;14.1;19.8
78479;SHT31;67769;51.972;5.668;2023-04-03T10:33:56;14.1;20.6
78479;SHT31;67769;51.972;5.668;2023-04-03T10:36:36;14.1;21.2
78479;SHT31;67769;51.972;5.668;2023-04-03T10:39:15;14.0;20.8
78479;SHT31;67769;51.972;5.668;2023-04-03T10:41:59;14.0;20.8
78479;SHT31;67769;51.972;5.668;2023-04-03T10:44:40;14.0;22.0
78479;SHT31;67769;51.972;5.668;2023-04-03T10:47:18;14.0;21.5
78479;SHT31;67769;51.972;5.668;2023-04-03T10:50:00;14.0;21.5
78479;SHT31;67769;51.972;5.668;2023-04-03T10:52:37;14.0;22.2
78479;SHT31;67769;51.972;5.668;2023-04-03T10:55:21;14.0;23.0
78479;SHT31;67769;51.972;5.668;2023-04-03T10:57:57;14.0;23.1
78479;SHT31;67769;51.972;5.668;2023-04-03T11:00:33;14.0;23.7
78479;SHT31;67769;51.972;5.668;2023-04-03T11:03:07;14.0;23.3
78479;SHT31;67769;51.972;5.668;2023-04-03T11:05:44;14.0;23.0
78479;SHT31;67769;51.972;5.668;2023-04-03T11:08:24;14.1;23.4
78479;SHT31;67769;51.972;5.668;2023-04-03T11:10:59;14.1;22.4
78479;SHT31;67769;51.972;5.668;2023-04-03T11:13:34;14.1;22.6
78479;SHT31;67769;51.972;5.668;2023-04-03T11:16:06;14.1;23.5
78479;SHT31;67769;51.972;5.668;2023-04-03T11:18:42;14.1;23.4
78479;SHT31;67769;51.972;5.668;2023-04-03T11:21:19;14.1;23.8
78479;SHT31;67769;51.972;5.668;2023-04-03T11:23:51;14.1;24.1
78479;SHT31;67769;51.972;5.668;2023-04-03T11:26:25;14.1;24.7
78479;SHT31;67769;51.972;5.668;2023-04-03T11:28:59;14.1;23.7
78479;SHT31;67769;51.972;5.668;2023-04-03T11:31:46;14.2;23.2
78479;SHT31;67769;51.972;5.668;2023-04-03T11:34:28;14.2;23.7
78479;SHT31;67769;51.972;5.668;2023-04-03T11:37:11;14.2;23.6
78479;SHT31;67769;51.972;5.668;2023-04-03T11:39:51;14.3;23.5
78479;SHT31;67769;51.972;5.668;2023-04-03T11:42:34;14.3;23.5
78479;SHT31;67769;51.972;5.668;2023-04-03T11:45:29;14.3;23.1
78479;SHT31;67769;51.972;5.668;2023-04-03T11:48:03;14.4;22.5
78479;SHT31;67769;51.972;5.668;2023-04-03T11:50:41;14.4;23.3
78479;SHT31;67769;51.972;5.668;2023-04-03T11:53:30;14.4;23.1
78479;SHT31;67769;51.972;5.668;2023-04-03T11:56:06;14.4;22.6
78479;SHT31;67769;51.972;5.668;2023-04-03T11:58:39;14.4;22.5
78479;SHT31;67769;51.972;5.668;2023-04-03T12:01:11;14.4;22.6
78479;SHT31;67769;51.972;5.668;2023-04-03T12:04:08;14.3;22.4
78479;SHT31;67769;51.972;5.668;2023-04-03T12:07:26;14.3;22.6
78479;SHT31;67769;51.972;5.668;2023-04-03T12:09:59;14.3;22.2
78479;SHT31;67769;51.972;5.668;2023-04-03T12:12:36;14.3;22.2
78479;SHT31;67769;51.972;5.668;2023-04-03T12:15:41;14.3;22.9
78479;SHT31;67769;51.972;5.668;2023-04-03T12:18:53;14.2;22.7
78479;SHT31;67769;51.972;5.668;2023-04-03T12:22:32;14.2;23.0
78479;SHT31;67769;51.972;5.668;2023-04-03T12:25:40;14.1;22.9
78479;SHT31;67769;51.972;5.668;2023-04-03T12:27:57;14.1;23.8
78479;SHT31;67769;51.972;5.668;2023-04-03T12:30:30;14.1;24.1
78479;SHT31;67769;51.972;5.668;2023-04-03T12:33:31;14.1;24.0
78479;SHT31;67769;51.972;5.668;2023-04-03T12:36:13;14.2;24.2
78479;SHT31;67769;51.972;5.668;2023-04-03T12:39:02;14.2;24.4
78479;SHT31;67769;51.972;5.668;2023-04-03T12:41:46;14.2;23.9
78479;SHT31;67769;51.972;5.668;2023-04-03T12:44:44;14.2;23.7
78479;SHT31;67769;51.972;5.668;2023-04-03T12:47:23;14.2;23.8
78479;SHT31;67769;51.972;5.668;2023-04-03T12:49:53;14.2;23.9
78479;SHT31;67769;51.972;5.668;2023-04-03T12:52:31;14.2;23.9
78479;SHT31;67769;51.972;5.668;2023-04-03T12:55:07;14.2;24.1
78479;SHT31;67769;51.972;5.668;2023-04-03T12:57:37;14.1;24.6
78479;SHT31;67769;51.972;5.668;2023-04-03T13:00:21;14.1;25.2
78479;SHT31;67769;51.972;5.668;2023-04-03T13:02:51;14.1;25.0
78479;SHT31;67769;51.972;5.668;2023-04-03T13:05:22;14.1;24.7
78479;SHT31;67769;51.972;5.668;2023-04-03T13:07:58;14.1;24.9
78479;SHT31;67769;51.972;5.668;2023-04-03T13:10:29;14.1;25.2
78479;SHT31;67769;51.972;5.668;2023-04-03T13:13:08;14.1;24.6
78479;SHT31;67769;51.972;5.668;2023-04-03T13:15:44;14.2;23.9
78479;SHT31;67769;51.972;5.668;2023-04-03T13:18:27;14.2;24.2
78479;SHT31;67769;51.972;5.668;2023-04-03T13:21:02;14.2;24.2
78479;SHT31;67769;51.972;5.668;2023-04-03T13:23:35;14.1;24.6
78479;SHT31;67769;51.972;5.668;2023-04-03T13:26:07;14.1;24.4
78479;SHT31;67769;51.972;5.668;2023-04-03T13:28:39;14.1;24.3
78479;SHT31;67769;51.972;5.668;2023-04-03T13:31:21;14.1;24.0
78479;SHT31;67769;51.972;5.668;2023-04-03T13:33:57;14.1;24.9
78479;SHT31;67769;51.972;5.668;2023-04-03T13:36:31;14.1;23.6
78479;SHT31;67769;51.972;5.668;2023-04-03T13:39:06;14.0;24.9
78479;SHT31;67769;51.972;5.668;2023-04-03T13:41:39;14.0;24.5
78479;SHT31;67769;51.972;5.668;2023-04-03T13:44:32;14.0;25.7
78479;SHT31;67769;51.972;5.668;2023-04-03T13:47:20;13.9;25.0
78479;SHT31;67769;51.972;5.668;2023-04-03T13:50:03;13.9;23.5
78479;SHT31;67769;51.972;5.668;2023-04-03T13:52:42;13.9;24.2
78479;SHT31;67769;51.972;5.668;2023-04-03T13:55:23;13.8;24.5
78479;SHT31;67769;51.972;5.668;2023-04-03T13:57:56;13.8;25.1
78479;SHT31;67769;51.972;5.668;2023-04-03T14:00:32;13.7;25.7
78479;SHT31;67769;51.972;5.668;2023-04-03T14:03:03;13.6;24.5
78479;SHT31;67769;51.972;5.668;2023-04-03T14:05:37;13.6;25.2
78479;SHT31;67769;51.972;5.668;2023-04-03T14:08:07;13.6;25.2
78479;SHT31;67769;51.972;5.668;2023-04-03T14:10:37;13.5;25.3
78479;SHT31;67769;51.972;5.668;2023-04-03T14:13:11;13.5;25.1
78479;SHT31;67769;51.972;5.668;2023-04-03T14:15:43;13.4;25.7
78479;SHT31;67769;51.972;5.668;2023-04-03T14:18:16;13.4;26.2
78479;SHT31;67769;51.972;5.668;2023-04-03T14:20:47;13.4;26.4
78479;SHT31;67769;51.972;5.668;2023-04-03T14:23:16;13.4;25.4
78479;SHT31;67769;51.972;5.668;2023-04-03T14:25:46;13.4;26.0
78479;SHT31;67769;51.972;5.668;2023-04-03T14:28:19;13.4;26.3
78479;SHT31;67769;51.972;5.668;2023-04-03T14:30:50;13.4;25.8
78479;SHT31;67769;51.972;5.668;2023-04-03T14:33:22;13.4;26.8
78479;SHT31;67769;51.972;5.668;2023-04-03T14:35:54;13.3;26.5
78479;SHT31;67769;51.972;5.668;2023-04-03T14:38:29;13.3;26.9
78479;SHT31;67769;51.972;5.668;2023-04-03T14:40:59;13.3;27.8
78479;SHT31;67769;51.972;5.668;2023-04-03T14:43:28;13.3;28.0
78479;SHT31;67769;51.972;5.668;2023-04-03T14:45:58;13.3;28.8
78479;SHT31;67769;51.972;5.668;2023-04-03T14:48:29;13.3;27.6
78479;SHT31;67769;51.972;5.668;2023-04-03T14:50:59;13.3;27.6
78479;SHT31;67769;51.972;5.668;2023-04-03T14:53:29;13.3;28.0
78479;SHT31;67769;51.972;5.668;2023-04-03T14:56:02;13.3;28.0
78479;SHT31;67769;51.972;5.668;2023-04-03T14:58:31;13.3;27.8
78479;SHT31;67769;51.972;5.668;2023-04-03T15:01:03;13.3;27.7
78479;SHT31;67769;51.972;5.668;2023-04-03T15:03:33;13.3;28.0
78479;SHT31;67769;51.972;5.668;2023-04-03T15:06:03;13.3;27.7
78479;SHT31;67769;51.972;5.668;2023-04-03T15:08:33;13.3;28.4
78479;SHT31;67769;51.972;5.668;2023-04-03T15:11:03;13.2;28.7
78479;SHT31;67769;51.972;5.668;2023-04-03T15:13:34;13.2;28.1
78479;SHT31;67769;51.972;5.668;2023-04-03T15:16:05;13.2;28.7
78479;SHT31;67769;51.972;5.668;2023-04-03T15:18:37;13.2;28.5
78479;SHT31;67769;51.972;5.668;2023-04-03T15:21:07;13.2;28.7
78479;SHT31;67769;51.972;5.668;2023-04-03T15:23:37;13.2;29.0
78479;SHT31;67769;51.972;5.668;2023-04-03T15:26:07;13.1;29.5
78479;SHT31;67769;51.972;5.668;2023-04-03T15:28:39;13.1;29.6
78479;SHT31;67769;51.972;5.668;2023-04-03T15:31:09;13.1;29.9
78479;SHT31;67769;51.972;5.668;2023-04-03T15:33:39;13.1;29.4
78479;SHT31;67769;51.972;5.668;2023-04-03T15:36:09;13.0;29.6
78479;SHT31;67769;51.972;5.668;2023-04-03T15:38:39;13.0;29.5
78479;SHT31;67769;51.972;5.668;2023-04-03T15:41:11;13.0;30.0
78479;SHT31;67769;51.972;5.668;2023-04-03T15:43:40;12.9;29.9
78479;SHT31;67769;51.972;5.668;2023-04-03T15:46:12;12.9;30.0
78479;SHT31;67769;51.972;5.668;2023-04-03T15:48:43;12.9;29.9
78479;SHT31;67769;51.972;5.668;2023-04-03T15:51:13;12.9;29.9
78479;SHT31;67769;51.972;5.668;2023-04-03T15:53:42;12.9;29.5
78479;SHT31;67769;51.972;5.668;2023-04-03T15:56:12;12.9;29.7
78479;SHT31;67769;51.972;5.668;2023-04-03T15:58:42;12.8;30.0
78479;SHT31;67769;51.972;5.668;2023-04-03T16:01:12;12.8;29.9
78479;SHT31;67769;51.972;5.668;2023-04-03T16:03:43;12.8;29.9
78479;SHT31;67769;51.972;5.668;2023-04-03T16:06:15;12.8;29.6
78479;SHT31;67769;51.972;5.668;2023-04-03T16:08:48;12.8;29.6
78479;SHT31;67769;51.972;5.668;2023-04-03T16:11:18;12.7;30.1
78479;SHT31;67769;51.972;5.668;2023-04-03T16:13:47;12.7;30.2
78479;SHT31;67769;51.972;5.668;2023-04-03T16:16:17;12.7;30.4
78479;SHT31;67769;51.972;5.668;2023-04-03T16:18:47;12.6;30.3
78479;SHT31;67769;51.972;5.668;2023-04-03T16:21:17;12.6;30.2
78479;SHT31;67769;51.972;5.668;2023-04-03T16:23:47;12.6;30.4
78479;SHT31;67769;51.972;5.668;2023-04-03T16:26:17;12.5;30.0
78479;SHT31;67769;51.972;5.668;2023-04-03T16:28:47;12.5;30.3
78479;SHT31;67769;51.972;5.668;2023-04-03T16:31:19;12.5;30.5
78479;SHT31;67769;51.972;5.668;2023-04-03T16:33:49;12.4;30.7
78479;SHT31;67769;51.972;5.668;2023-04-03T16:36:18;12.4;30.6
78479;SHT31;67769;51.972;5.668;2023-04-03T16:38:48;12.4;31.0
78479;SHT31;67769;51.972;5.668;2023-04-03T16:41:18;12.3;31.3
78479;SHT31;67769;51.972;5.668;2023-04-03T16:43:47;12.3;31.2
78479;SHT31;67769;51.972;5.668;2023-04-03T16:46:18;12.3;31.0
78479;SHT31;67769;51.972;5.668;2023-04-03T16:48:47;12.3;31.4